Hartford, Connecticut
Traffic Map
Current Weather Conditions
Hartford, Connecticut
Clear
Clear

Feels Like: 6°
Wind Chill: Ceiling: Unl
Heat Index: Visibility: 10mi
Dew Point: -2° Wind: 8mph
Humidity: 48% Direction: 20° (NNE)
Pressure: 29.71in Gusts: 0mph
Raw Report DataKHFD 260353Z AUTO 02007KT 10SM CLR 08/M02 A2971 RMK AO2 SLP062 T00831022
Traffic Incident Summary
Active as of:
Severity:
Category:
InformationThere was an issue retrieving the traffic information for this location. Please try a different location or try again shortly.
Advertisements
Track Severe Weather on mobile